sensor_id;sensor_type;location;lat;lon;timestamp;temperature;humidity
20803;DHT22;10562;-33.856;151.182;2023-04-03T00:02:11;19.00;99.90
20803;DHT22;10562;-33.856;151.182;2023-04-03T00:04:42;18.80;99.90
20803;DHT22;10562;-33.856;151.182;2023-04-03T00:07:12;18.90;99.90
20803;DHT22;10562;-33.856;151.182;2023-04-03T00:09:43;18.80;99.90
20803;DHT22;10562;-33.856;151.182;2023-04-03T00:12:16;18.90;99.90
20803;DHT22;10562;-33.856;151.182;2023-04-03T00:14:46;18.90;99.90
20803;DHT22;10562;-33.856;151.182;2023-04-03T00:17:17;18.80;99.90
20803;DHT22;10562;-33.856;151.182;2023-04-03T00:19:48;18.80;99.90
20803;DHT22;10562;-33.856;151.182;2023-04-03T00:22:19;18.90;99.90
20803;DHT22;10562;-33.856;151.182;2023-04-03T00:24:50;18.90;99.90
20803;DHT22;10562;-33.856;151.182;2023-04-03T00:27:22;18.90;99.90
20803;DHT22;10562;-33.856;151.182;2023-04-03T00:29:53;19.00;99.90
20803;DHT22;10562;-33.856;151.182;2023-04-03T00:32:24;19.00;99.90
20803;DHT22;10562;-33.856;151.182;2023-04-03T00:34:55;19.00;99.90
20803;DHT22;10562;-33.856;151.182;2023-04-03T00:37:26;19.10;99.90
20803;DHT22;10562;-33.856;151.182;2023-04-03T00:39:56;19.30;99.90
20803;DHT22;10562;-33.856;151.182;2023-04-03T00:42:29;19.40;99.90
20803;DHT22;10562;-33.856;151.182;2023-04-03T00:45:33;19.50;99.90
20803;DHT22;10562;-33.856;151.182;2023-04-03T00:48:07;19.60;99.90
20803;DHT22;10562;-33.856;151.182;2023-04-03T00:50:40;19.90;99.90
20803;DHT22;10562;-33.856;151.182;2023-04-03T00:53:14;20.40;99.90
20803;DHT22;10562;-33.856;151.182;2023-04-03T00:55:47;20.80;99.90
20803;DHT22;10562;-33.856;151.182;2023-04-03T00:58:25;21.20;99.90
20803;DHT22;10562;-33.856;151.182;2023-04-03T01:00:59;21.30;99.90
20803;DHT22;10562;-33.856;151.182;2023-04-03T01:03:33;21.50;99.90
20803;DHT22;10562;-33.856;151.182;2023-04-03T01:06:04;21.70;99.90
20803;DHT22;10562;-33.856;151.182;2023-04-03T01:08:35;21.70;99.90
20803;DHT22;10562;-33.856;151.182;2023-04-03T01:11:06;22.10;99.90
20803;DHT22;10562;-33.856;151.182;2023-04-03T01:13:39;22.30;99.90
20803;DHT22;10562;-33.856;151.182;2023-04-03T01:16:10;22.30;99.90
20803;DHT22;10562;-33.856;151.182;2023-04-03T01:18:41;22.50;99.90
20803;DHT22;10562;-33.856;151.182;2023-04-03T01:24:36;23.00;99.90
20803;DHT22;10562;-33.856;151.182;2023-04-03T01:27:10;23.20;99.90
20803;DHT22;10562;-33.856;151.182;2023-04-03T01:29:43;23.40;99.90
20803;DHT22;10562;-33.856;151.182;2023-04-03T01:32:16;23.30;99.90
20803;DHT22;10562;-33.856;151.182;2023-04-03T01:34:47;23.40;99.90
20803;DHT22;10562;-33.856;151.182;2023-04-03T01:37:18;23.30;99.90
20803;DHT22;10562;-33.856;151.182;2023-04-03T01:39:49;23.10;99.90
20803;DHT22;10562;-33.856;151.182;2023-04-03T01:42:19;23.20;99.90
20803;DHT22;10562;-33.856;151.182;2023-04-03T01:44:50;23.10;99.90
20803;DHT22;10562;-33.856;151.182;2023-04-03T01:47:23;23.20;99.90
20803;DHT22;10562;-33.856;151.182;2023-04-03T01:49:54;23.40;99.90
20803;DHT22;10562;-33.856;151.182;2023-04-03T01:52:25;23.60;99.90
20803;DHT22;10562;-33.856;151.182;2023-04-03T01:54:55;23.70;99.90
20803;DHT22;10562;-33.856;151.182;2023-04-03T01:57:26;23.70;99.90
20803;DHT22;10562;-33.856;151.182;2023-04-03T01:59:57;24.00;99.90
20803;DHT22;10562;-33.856;151.182;2023-04-03T02:02:30;24.30;99.90
20803;DHT22;10562;-33.856;151.182;2023-04-03T02:05:00;24.30;99.90
20803;DHT22;10562;-33.856;151.182;2023-04-03T02:07:31;24.50;99.90
20803;DHT22;10562;-33.856;151.182;2023-04-03T02:10:02;24.60;99.90
20803;DHT22;10562;-33.856;151.182;2023-04-03T02:12:33;24.70;99.90
20803;DHT22;10562;-33.856;151.182;2023-04-03T02:15:04;24.50;99.90
20803;DHT22;10562;-33.856;151.182;2023-04-03T02:17:37;24.80;99.90
20803;DHT22;10562;-33.856;151.182;2023-04-03T02:20:08;25.00;99.90
20803;DHT22;10562;-33.856;151.182;2023-04-03T02:22:40;24.70;99.90
20803;DHT22;10562;-33.856;151.182;2023-04-03T02:25:11;24.60;99.90
20803;DHT22;10562;-33.856;151.182;2023-04-03T02:27:42;24.70;99.90
20803;DHT22;10562;-33.856;151.182;2023-04-03T02:30:14;24.60;99.90
20803;DHT22;10562;-33.856;151.182;2023-04-03T02:32:46;24.60;99.90
20803;DHT22;10562;-33.856;151.182;2023-04-03T02:35:17;24.80;99.90
20803;DHT22;10562;-33.856;151.182;2023-04-03T02:37:48;24.80;99.90
20803;DHT22;10562;-33.856;151.182;2023-04-03T02:40:19;25.00;99.90
20803;DHT22;10562;-33.856;151.182;2023-04-03T02:42:50;24.90;99.90
20803;DHT22;10562;-33.856;151.182;2023-04-03T02:45:20;24.90;99.90
20803;DHT22;10562;-33.856;151.182;2023-04-03T02:47:53;24.70;99.90
20803;DHT22;10562;-33.856;151.182;2023-04-03T02:50:24;24.60;99.90
20803;DHT22;10562;-33.856;151.182;2023-04-03T02:52:55;24.60;99.90
20803;DHT22;10562;-33.856;151.182;2023-04-03T02:55:26;24.80;99.90
20803;DHT22;10562;-33.856;151.182;2023-04-03T02:57:56;24.80;99.90
20803;DHT22;10562;-33.856;151.182;2023-04-03T03:00:27;24.80;99.90
20803;DHT22;10562;-33.856;151.182;2023-04-03T03:03:00;24.90;99.90
20803;DHT22;10562;-33.856;151.182;2023-04-03T03:05:31;24.60;99.90
20803;DHT22;10562;-33.856;151.182;2023-04-03T03:08:02;24.20;99.90
20803;DHT22;10562;-33.856;151.182;2023-04-03T03:10:33;23.90;99.90
20803;DHT22;10562;-33.856;151.182;2023-04-03T03:13:04;24.00;99.90
20803;DHT22;10562;-33.856;151.182;2023-04-03T03:15:35;24.00;99.90
20803;DHT22;10562;-33.856;151.182;2023-04-03T03:18:08;24.10;99.90
20803;DHT22;10562;-33.856;151.182;2023-04-03T03:20:39;24.40;99.90
20803;DHT22;10562;-33.856;151.182;2023-04-03T03:23:09;24.60;99.90
20803;DHT22;10562;-33.856;151.182;2023-04-03T03:25:40;24.70;99.90
20803;DHT22;10562;-33.856;151.182;2023-04-03T03:28:11;25.00;99.90
20803;DHT22;10562;-33.856;151.182;2023-04-03T03:30:42;25.10;99.90
20803;DHT22;10562;-33.856;151.182;2023-04-03T03:33:14;25.20;99.90
20803;DHT22;10562;-33.856;151.182;2023-04-03T03:35:46;25.40;99.90
20803;DHT22;10562;-33.856;151.182;2023-04-03T03:38:16;25.20;99.90
20803;DHT22;10562;-33.856;151.182;2023-04-03T03:40:48;25.20;99.90
20803;DHT22;10562;-33.856;151.182;2023-04-03T03:43:20;25.30;99.90
20803;DHT22;10562;-33.856;151.182;2023-04-03T03:45:51;25.20;99.90
20803;DHT22;10562;-33.856;151.182;2023-04-03T03:48:24;25.10;99.90
20803;DHT22;10562;-33.856;151.182;2023-04-03T03:50:55;25.10;99.90
20803;DHT22;10562;-33.856;151.182;2023-04-03T03:53:26;24.80;99.90
20803;DHT22;10562;-33.856;151.182;2023-04-03T03:55:57;24.70;99.90
20803;DHT22;10562;-33.856;151.182;2023-04-03T03:58:27;24.80;99.90
20803;DHT22;10562;-33.856;151.182;2023-04-03T04:01:01;24.90;99.90
20803;DHT22;10562;-33.856;151.182;2023-04-03T04:03:35;25.00;99.90
20803;DHT22;10562;-33.856;151.182;2023-04-03T04:06:05;25.10;99.90
20803;DHT22;10562;-33.856;151.182;2023-04-03T04:08:36;25.10;99.90
20803;DHT22;10562;-33.856;151.182;2023-04-03T04:11:07;25.10;99.90
20803;DHT22;10562;-33.856;151.182;2023-04-03T04:13:38;24.90;99.90
20803;DHT22;10562;-33.856;151.182;2023-04-03T04:16:09;24.90;99.90
20803;DHT22;10562;-33.856;151.182;2023-04-03T04:18:42;25.10;99.90
20803;DHT22;10562;-33.856;151.182;2023-04-03T04:21:13;25.00;99.90
20803;DHT22;10562;-33.856;151.182;2023-04-03T04:23:43;25.10;99.90
20803;DHT22;10562;-33.856;151.182;2023-04-03T04:26:14;25.10;99.90
20803;DHT22;10562;-33.856;151.182;2023-04-03T04:28:45;25.20;99.90
20803;DHT22;10562;-33.856;151.182;2023-04-03T04:31:16;25.40;99.90
20803;DHT22;10562;-33.856;151.182;2023-04-03T04:33:48;25.50;99.90
20803;DHT22;10562;-33.856;151.182;2023-04-03T04:36:20;25.30;99.90
20803;DHT22;10562;-33.856;151.182;2023-04-03T04:38:51;24.60;99.90
20803;DHT22;10562;-33.856;151.182;2023-04-03T04:41:22;24.30;99.90
20803;DHT22;10562;-33.856;151.182;2023-04-03T04:43:53;24.30;99.90
20803;DHT22;10562;-33.856;151.182;2023-04-03T04:46:24;24.30;99.90
20803;DHT22;10562;-33.856;151.182;2023-04-03T04:48:57;24.40;99.90
20803;DHT22;10562;-33.856;151.182;2023-04-03T04:51:28;24.70;99.90
20803;DHT22;10562;-33.856;151.182;2023-04-03T04:53:58;24.70;99.90
20803;DHT22;10562;-33.856;151.182;2023-04-03T04:56:29;24.80;99.90
20803;DHT22;10562;-33.856;151.182;2023-04-03T04:59:00;24.70;99.90
20803;DHT22;10562;-33.856;151.182;2023-04-03T05:01:31;24.80;99.90
20803;DHT22;10562;-33.856;151.182;2023-04-03T05:04:04;24.70;99.90
20803;DHT22;10562;-33.856;151.182;2023-04-03T05:06:34;24.30;99.90
20803;DHT22;10562;-33.856;151.182;2023-04-03T05:09:06;24.30;99.90
20803;DHT22;10562;-33.856;151.182;2023-04-03T05:11:37;24.30;99.90
20803;DHT22;10562;-33.856;151.182;2023-04-03T05:14:08;23.90;99.90
20803;DHT22;10562;-33.856;151.182;2023-04-03T05:16:39;24.00;99.90
20803;DHT22;10562;-33.856;151.182;2023-04-03T05:19:11;24.10;99.90
20803;DHT22;10562;-33.856;151.182;2023-04-03T05:21:42;24.10;99.90
20803;DHT22;10562;-33.856;151.182;2023-04-03T05:24:13;24.30;99.90
20803;DHT22;10562;-33.856;151.182;2023-04-03T05:26:44;24.20;99.90
20803;DHT22;10562;-33.856;151.182;2023-04-03T05:29:14;23.90;99.90
20803;DHT22;10562;-33.856;151.182;2023-04-03T05:31:45;23.70;99.90
20803;DHT22;10562;-33.856;151.182;2023-04-03T05:34:18;23.80;99.90
20803;DHT22;10562;-33.856;151.182;2023-04-03T05:36:49;23.90;99.90
20803;DHT22;10562;-33.856;151.182;2023-04-03T05:39:20;23.90;99.90
20803;DHT22;10562;-33.856;151.182;2023-04-03T05:41:52;24.00;99.90
20803;DHT22;10562;-33.856;151.182;2023-04-03T05:44:23;24.10;99.90
20803;DHT22;10562;-33.856;151.182;2023-04-03T05:46:58;24.10;99.90
20803;DHT22;10562;-33.856;151.182;2023-04-03T05:49:31;24.30;99.90
20803;DHT22;10562;-33.856;151.182;2023-04-03T05:52:02;24.50;99.90
20803;DHT22;10562;-33.856;151.182;2023-04-03T05:54:33;24.80;99.90
20803;DHT22;10562;-33.856;151.182;2023-04-03T05:57:04;25.00;99.90
20803;DHT22;10562;-33.856;151.182;2023-04-03T05:59:34;24.90;99.90
20803;DHT22;10562;-33.856;151.182;2023-04-03T06:02:05;24.70;99.90
20803;DHT22;10562;-33.856;151.182;2023-04-03T06:04:39;23.90;99.90
20803;DHT22;10562;-33.856;151.182;2023-04-03T06:07:13;24.10;99.90
20803;DHT22;10562;-33.856;151.182;2023-04-03T06:09:45;24.30;99.90
20803;DHT22;10562;-33.856;151.182;2023-04-03T06:12:16;24.30;99.90
20803;DHT22;10562;-33.856;151.182;2023-04-03T06:14:46;24.40;99.90
20803;DHT22;10562;-33.856;151.182;2023-04-03T06:17:19;24.40;99.90
20803;DHT22;10562;-33.856;151.182;2023-04-03T06:19:52;24.60;99.90
20803;DHT22;10562;-33.856;151.182;2023-04-03T06:22:23;24.50;99.90
20803;DHT22;10562;-33.856;151.182;2023-04-03T06:24:57;24.50;99.90
20803;DHT22;10562;-33.856;151.182;2023-04-03T06:27:28;24.50;99.90
20803;DHT22;10562;-33.856;151.182;2023-04-03T06:29:59;24.60;99.90
20803;DHT22;10562;-33.856;151.182;2023-04-03T06:32:30;24.70;99.90
20803;DHT22;10562;-33.856;151.182;2023-04-03T06:35:02;24.80;99.90
20803;DHT22;10562;-33.856;151.182;2023-04-03T06:37:33;25.00;99.90
20803;DHT22;10562;-33.856;151.182;2023-04-03T06:40:04;24.80;99.90
20803;DHT22;10562;-33.856;151.182;2023-04-03T06:42:35;24.40;99.90
20803;DHT22;10562;-33.856;151.182;2023-04-03T06:45:07;23.90;99.90
20803;DHT22;10562;-33.856;151.182;2023-04-03T06:47:39;23.30;99.90
20803;DHT22;10562;-33.856;151.182;2023-04-03T06:50:12;22.90;99.90
20803;DHT22;10562;-33.856;151.182;2023-04-03T06:52:43;22.50;99.90
20803;DHT22;10562;-33.856;151.182;2023-04-03T06:55:14;22.30;99.90
20803;DHT22;10562;-33.856;151.182;2023-04-03T06:57:45;22.20;99.90
20803;DHT22;10562;-33.856;151.182;2023-04-03T07:00:16;22.00;99.90
20803;DHT22;10562;-33.856;151.182;2023-04-03T07:02:47;22.00;99.90
20803;DHT22;10562;-33.856;151.182;2023-04-03T07:05:19;22.00;99.90
20803;DHT22;10562;-33.856;151.182;2023-04-03T07:07:50;21.90;99.90
20803;DHT22;10562;-33.856;151.182;2023-04-03T07:10:21;21.70;99.90
20803;DHT22;10562;-33.856;151.182;2023-04-03T07:12:52;21.60;99.90
20803;DHT22;10562;-33.856;151.182;2023-04-03T07:15:23;21.50;99.90
20803;DHT22;10562;-33.856;151.182;2023-04-03T07:17:54;21.30;99.90
20803;DHT22;10562;-33.856;151.182;2023-04-03T07:20:27;21.30;99.90
20803;DHT22;10562;-33.856;151.182;2023-04-03T07:22:57;21.10;99.90
20803;DHT22;10562;-33.856;151.182;2023-04-03T07:25:29;21.00;99.90
20803;DHT22;10562;-33.856;151.182;2023-04-03T07:28:01;21.00;99.90
20803;DHT22;10562;-33.856;151.182;2023-04-03T07:30:32;20.90;99.90
20803;DHT22;10562;-33.856;151.182;2023-04-03T07:33:03;20.80;99.90
20803;DHT22;10562;-33.856;151.182;2023-04-03T07:35:36;20.70;99.90
20803;DHT22;10562;-33.856;151.182;2023-04-03T07:38:06;20.70;99.90
20803;DHT22;10562;-33.856;151.182;2023-04-03T07:40:40;20.60;99.90
20803;DHT22;10562;-33.856;151.182;2023-04-03T07:43:16;20.50;99.90
20803;DHT22;10562;-33.856;151.182;2023-04-03T07:45:47;20.50;99.90
20803;DHT22;10562;-33.856;151.182;2023-04-03T07:48:19;20.40;99.90
20803;DHT22;10562;-33.856;151.182;2023-04-03T07:50:52;20.30;99.90
20803;DHT22;10562;-33.856;151.182;2023-04-03T07:53:24;20.30;99.90
20803;DHT22;10562;-33.856;151.182;2023-04-03T07:55:56;20.30;99.90
20803;DHT22;10562;-33.856;151.182;2023-04-03T07:58:27;20.30;99.90
20803;DHT22;10562;-33.856;151.182;2023-04-03T08:00:58;20.20;99.90
20803;DHT22;10562;-33.856;151.182;2023-04-03T08:03:29;20.20;99.90
20803;DHT22;10562;-33.856;151.182;2023-04-03T08:06:05;20.20;99.90
20803;DHT22;10562;-33.856;151.182;2023-04-03T08:08:39;20.10;99.90
20803;DHT22;10562;-33.856;151.182;2023-04-03T08:11:11;20.10;99.90
20803;DHT22;10562;-33.856;151.182;2023-04-03T08:13:42;20.00;99.90
20803;DHT22;10562;-33.856;151.182;2023-04-03T08:16:16;20.00;99.90
20803;DHT22;10562;-33.856;151.182;2023-04-03T08:18:47;20.00;99.90
20803;DHT22;10562;-33.856;151.182;2023-04-03T08:21:20;20.00;99.90
20803;DHT22;10562;-33.856;151.182;2023-04-03T08:23:51;20.00;99.90
20803;DHT22;10562;-33.856;151.182;2023-04-03T08:26:25;20.00;99.90
20803;DHT22;10562;-33.856;151.182;2023-04-03T08:28:56;20.00;99.90
20803;DHT22;10562;-33.856;151.182;2023-04-03T08:31:27;20.00;99.90
20803;DHT22;10562;-33.856;151.182;2023-04-03T08:33:58;19.90;99.90
20803;DHT22;10562;-33.856;151.182;2023-04-03T08:36:31;19.80;99.90
20803;DHT22;10562;-33.856;151.182;2023-04-03T08:39:02;19.80;99.90
20803;DHT22;10562;-33.856;151.182;2023-04-03T08:41:35;19.90;99.90
20803;DHT22;10562;-33.856;151.182;2023-04-03T08:44:15;19.90;99.90
20803;DHT22;10562;-33.856;151.182;2023-04-03T08:47:07;20.10;99.90
20803;DHT22;10562;-33.856;151.182;2023-04-03T08:49:42;20.20;99.90
20803;DHT22;10562;-33.856;151.182;2023-04-03T08:52:18;20.20;99.90
20803;DHT22;10562;-33.856;151.182;2023-04-03T08:54:51;20.30;99.90
20803;DHT22;10562;-33.856;151.182;2023-04-03T08:57:29;20.40;99.90
20803;DHT22;10562;-33.856;151.182;2023-04-03T09:00:03;20.40;99.90
20803;DHT22;10562;-33.856;151.182;2023-04-03T09:02:41;20.40;99.90
20803;DHT22;10562;-33.856;151.182;2023-04-03T09:05:15;20.40;99.90
20803;DHT22;10562;-33.856;151.182;2023-04-03T09:07:52;20.40;99.90
20803;DHT22;10562;-33.856;151.182;2023-04-03T09:10:27;20.40;99.90
20803;DHT22;10562;-33.856;151.182;2023-04-03T09:13:03;20.40;99.90
20803;DHT22;10562;-33.856;151.182;2023-04-03T09:15:36;20.30;99.90
20803;DHT22;10562;-33.856;151.182;2023-04-03T09:18:13;20.30;99.90
20803;DHT22;10562;-33.856;151.182;2023-04-03T09:20:49;20.30;99.90
20803;DHT22;10562;-33.856;151.182;2023-04-03T09:23:29;20.20;99.90
20803;DHT22;10562;-33.856;151.182;2023-04-03T09:26:05;20.20;99.90
20803;DHT22;10562;-33.856;151.182;2023-04-03T09:28:41;20.30;99.90
20803;DHT22;10562;-33.856;151.182;2023-04-03T09:31:22;20.20;99.90
20803;DHT22;10562;-33.856;151.182;2023-04-03T09:33:57;20.20;99.90
20803;DHT22;10562;-33.856;151.182;2023-04-03T09:36:45;20.20;99.90
20803;DHT22;10562;-33.856;151.182;2023-04-03T09:39:22;20.10;99.90
20803;DHT22;10562;-33.856;151.182;2023-04-03T09:42:03;20.20;99.90
20803;DHT22;10562;-33.856;151.182;2023-04-03T09:44:36;20.20;99.90
20803;DHT22;10562;-33.856;151.182;2023-04-03T09:47:19;20.10;99.90
20803;DHT22;10562;-33.856;151.182;2023-04-03T09:50:17;20.10;99.90
20803;DHT22;10562;-33.856;151.182;2023-04-03T09:52:50;20.00;99.90
20803;DHT22;10562;-33.856;151.182;2023-04-03T09:55:24;20.00;99.90
20803;DHT22;10562;-33.856;151.182;2023-04-03T09:57:58;20.00;99.90
20803;DHT22;10562;-33.856;151.182;2023-04-03T10:00:33;20.10;99.90
20803;DHT22;10562;-33.856;151.182;2023-04-03T10:03:05;20.20;99.90
20803;DHT22;10562;-33.856;151.182;2023-04-03T10:05:39;20.30;99.90
20803;DHT22;10562;-33.856;151.182;2023-04-03T10:08:20;20.30;99.90
20803;DHT22;10562;-33.856;151.182;2023-04-03T10:11:10;20.30;99.90
20803;DHT22;10562;-33.856;151.182;2023-04-03T10:13:55;20.20;99.90
20803;DHT22;10562;-33.856;151.182;2023-04-03T10:16:34;20.20;99.90
20803;DHT22;10562;-33.856;151.182;2023-04-03T10:19:31;20.20;99.90
20803;DHT22;10562;-33.856;151.182;2023-04-03T10:22:09;20.20;99.90
20803;DHT22;10562;-33.856;151.182;2023-04-03T10:24:51;20.10;99.90
20803;DHT22;10562;-33.856;151.182;2023-04-03T10:27:33;20.10;99.90
20803;DHT22;10562;-33.856;151.182;2023-04-03T10:30:19;20.10;99.90
20803;DHT22;10562;-33.856;151.182;2023-04-03T10:32:58;20.10;99.90
20803;DHT22;10562;-33.856;151.182;2023-04-03T10:35:41;20.10;99.90
20803;DHT22;10562;-33.856;151.182;2023-04-03T10:38:20;20.00;99.90
20803;DHT22;10562;-33.856;151.182;2023-04-03T10:40:57;20.00;99.90
20803;DHT22;10562;-33.856;151.182;2023-04-03T10:43:38;19.90;99.90
20803;DHT22;10562;-33.856;151.182;2023-04-03T10:46:12;19.80;99.90
20803;DHT22;10562;-33.856;151.182;2023-04-03T10:48:56;19.70;99.90
20803;DHT22;10562;-33.856;151.182;2023-04-03T10:51:33;19.60;99.90
20803;DHT22;10562;-33.856;151.182;2023-04-03T10:54:11;19.60;99.90
20803;DHT22;10562;-33.856;151.182;2023-04-03T10:56:43;19.70;99.90
20803;DHT22;10562;-33.856;151.182;2023-04-03T10:59:22;19.60;99.90
20803;DHT22;10562;-33.856;151.182;2023-04-03T11:01:57;19.60;99.90
20803;DHT22;10562;-33.856;151.182;2023-04-03T11:04:33;19.60;99.90
20803;DHT22;10562;-33.856;151.182;2023-04-03T11:07:10;19.60;99.90
20803;DHT22;10562;-33.856;151.182;2023-04-03T11:09:43;19.50;99.90
20803;DHT22;10562;-33.856;151.182;2023-04-03T11:12:18;19.40;99.90
20803;DHT22;10562;-33.856;151.182;2023-04-03T11:14:54;19.40;99.90
20803;DHT22;10562;-33.856;151.182;2023-04-03T11:17:32;19.30;99.90
20803;DHT22;10562;-33.856;151.182;2023-04-03T11:20:10;19.20;99.90
20803;DHT22;10562;-33.856;151.182;2023-04-03T11:22:47;19.10;99.90
20803;DHT22;10562;-33.856;151.182;2023-04-03T11:25:22;19.10;99.90
20803;DHT22;10562;-33.856;151.182;2023-04-03T11:27:56;19.10;99.90
20803;DHT22;10562;-33.856;151.182;2023-04-03T11:30:31;19.20;99.90
20803;DHT22;10562;-33.856;151.182;2023-04-03T11:33:32;19.20;99.90
20803;DHT22;10562;-33.856;151.182;2023-04-03T11:36:08;19.10;99.90
20803;DHT22;10562;-33.856;151.182;2023-04-03T11:38:43;19.10;99.90
20803;DHT22;10562;-33.856;151.182;2023-04-03T11:41:16;19.00;99.90
20803;DHT22;10562;-33.856;151.182;2023-04-03T11:43:59;19.00;99.90
20803;DHT22;10562;-33.856;151.182;2023-04-03T11:46:53;18.90;99.90
20803;DHT22;10562;-33.856;151.182;2023-04-03T11:49:58;18.90;99.90
20803;DHT22;10562;-33.856;151.182;2023-04-03T11:52:57;18.90;99.90
20803;DHT22;10562;-33.856;151.182;2023-04-03T11:55:55;18.90;99.90
20803;DHT22;10562;-33.856;151.182;2023-04-03T11:58:29;18.80;99.90
20803;DHT22;10562;-33.856;151.182;2023-04-03T12:01:06;18.80;99.90
20803;DHT22;10562;-33.856;151.182;2023-04-03T12:04:04;18.70;99.90
20803;DHT22;10562;-33.856;151.182;2023-04-03T12:06:59;18.70;99.90
20803;DHT22;10562;-33.856;151.182;2023-04-03T12:10:19;18.60;99.90
20803;DHT22;10562;-33.856;151.182;2023-04-03T12:12:59;18.60;99.90
20803;DHT22;10562;-33.856;151.182;2023-04-03T12:15:52;18.50;99.90
20803;DHT22;10562;-33.856;151.182;2023-04-03T12:18:42;18.40;99.90
20803;DHT22;10562;-33.856;151.182;2023-04-03T12:21:16;18.30;99.90
20803;DHT22;10562;-33.856;151.182;2023-04-03T12:24:00;18.30;99.90
20803;DHT22;10562;-33.856;151.182;2023-04-03T12:26:38;18.20;99.90
20803;DHT22;10562;-33.856;151.182;2023-04-03T12:29:17;18.10;99.90
20803;DHT22;10562;-33.856;151.182;2023-04-03T12:32:01;18.00;99.90
20803;DHT22;10562;-33.856;151.182;2023-04-03T12:34:53;18.00;99.90
20803;DHT22;10562;-33.856;151.182;2023-04-03T12:37:44;17.90;99.90
20803;DHT22;10562;-33.856;151.182;2023-04-03T12:40:25;17.90;99.90
20803;DHT22;10562;-33.856;151.182;2023-04-03T12:43:20;17.80;99.90
20803;DHT22;10562;-33.856;151.182;2023-04-03T12:46:02;17.80;99.90
20803;DHT22;10562;-33.856;151.182;2023-04-03T12:48:38;17.80;99.90
20803;DHT22;10562;-33.856;151.182;2023-04-03T12:51:09;17.80;99.90
20803;DHT22;10562;-33.856;151.182;2023-04-03T12:53:46;17.80;99.90
20803;DHT22;10562;-33.856;151.182;2023-04-03T12:56:23;17.80;99.90
20803;DHT22;10562;-33.856;151.182;2023-04-03T12:58:56;17.80;99.90
20803;DHT22;10562;-33.856;151.182;2023-04-03T13:01:42;17.80;99.90
20803;DHT22;10562;-33.856;151.182;2023-04-03T13:04:13;17.90;99.90
20803;DHT22;10562;-33.856;151.182;2023-04-03T13:06:45;17.80;99.90
20803;DHT22;10562;-33.856;151.182;2023-04-03T13:09:24;17.90;99.90
20803;DHT22;10562;-33.856;151.182;2023-04-03T13:12:00;17.90;99.90
20803;DHT22;10562;-33.856;151.182;2023-04-03T13:14:31;17.90;99.90
20803;DHT22;10562;-33.856;151.182;2023-04-03T13:17:06;17.90;99.90
20803;DHT22;10562;-33.856;151.182;2023-04-03T13:19:41;17.90;99.90
20803;DHT22;10562;-33.856;151.182;2023-04-03T13:22:27;18.10;99.90
20803;DHT22;10562;-33.856;151.182;2023-04-03T13:25:03;18.20;99.90
20803;DHT22;10562;-33.856;151.182;2023-04-03T13:27:37;18.20;99.90
20803;DHT22;10562;-33.856;151.182;2023-04-03T13:30:25;18.20;99.90
20803;DHT22;10562;-33.856;151.182;2023-04-03T13:32:57;18.10;99.90
20803;DHT22;10562;-33.856;151.182;2023-04-03T13:35:34;18.00;99.90
20803;DHT22;10562;-33.856;151.182;2023-04-03T13:38:21;17.90;99.90
20803;DHT22;10562;-33.856;151.182;2023-04-03T13:40:55;17.80;99.90
20803;DHT22;10562;-33.856;151.182;2023-04-03T13:43:30;17.70;99.90
20803;DHT22;10562;-33.856;151.182;2023-04-03T13:46:04;17.60;99.90
20803;DHT22;10562;-33.856;151.182;2023-04-03T13:48:42;17.50;99.90
20803;DHT22;10562;-33.856;151.182;2023-04-03T13:51:22;17.40;99.90
20803;DHT22;10562;-33.856;151.182;2023-04-03T13:53:55;17.40;99.90
20803;DHT22;10562;-33.856;151.182;2023-04-03T13:56:32;17.30;99.90
20803;DHT22;10562;-33.856;151.182;2023-04-03T13:59:20;17.30;99.90
20803;DHT22;10562;-33.856;151.182;2023-04-03T14:01:53;17.20;99.90
20803;DHT22;10562;-33.856;151.182;2023-04-03T14:04:26;17.20;99.90
20803;DHT22;10562;-33.856;151.182;2023-04-03T14:06:57;17.20;99.90
20803;DHT22;10562;-33.856;151.182;2023-04-03T14:09:28;17.20;99.90
20803;DHT22;10562;-33.856;151.182;2023-04-03T14:12:04;17.10;99.90
20803;DHT22;10562;-33.856;151.182;2023-04-03T14:14:37;17.10;99.90
20803;DHT22;10562;-33.856;151.182;2023-04-03T14:17:15;17.10;99.90
20803;DHT22;10562;-33.856;151.182;2023-04-03T14:19:46;17.10;99.90
20803;DHT22;10562;-33.856;151.182;2023-04-03T14:22:19;17.00;99.90
20803;DHT22;10562;-33.856;151.182;2023-04-03T14:24:51;17.20;99.90
20803;DHT22;10562;-33.856;151.182;2023-04-03T14:27:26;17.10;99.90
20803;DHT22;10562;-33.856;151.182;2023-04-03T14:29:57;17.20;99.90
20803;DHT22;10562;-33.856;151.182;2023-04-03T14:32:31;17.20;99.90
20803;DHT22;10562;-33.856;151.182;2023-04-03T14:35:01;17.20;99.90
20803;DHT22;10562;-33.856;151.182;2023-04-03T14:37:32;17.20;99.90
20803;DHT22;10562;-33.856;151.182;2023-04-03T14:40:05;17.20;99.90
20803;DHT22;10562;-33.856;151.182;2023-04-03T14:42:38;17.20;99.90
20803;DHT22;10562;-33.856;151.182;2023-04-03T14:45:10;17.10;99.90
20803;DHT22;10562;-33.856;151.182;2023-04-03T14:47:44;17.00;99.90
20803;DHT22;10562;-33.856;151.182;2023-04-03T14:50:18;17.00;99.90
20803;DHT22;10562;-33.856;151.182;2023-04-03T14:52:51;16.90;99.90
20803;DHT22;10562;-33.856;151.182;2023-04-03T14:55:23;16.80;99.90
20803;DHT22;10562;-33.856;151.182;2023-04-03T14:57:56;16.80;99.90
20803;DHT22;10562;-33.856;151.182;2023-04-03T15:00:27;16.80;99.90
20803;DHT22;10562;-33.856;151.182;2023-04-03T15:02:58;16.80;99.90
20803;DHT22;10562;-33.856;151.182;2023-04-03T15:05:29;16.80;99.90
20803;DHT22;10562;-33.856;151.182;2023-04-03T15:07:59;16.70;99.90
20803;DHT22;10562;-33.856;151.182;2023-04-03T15:10:31;16.70;99.90
20803;DHT22;10562;-33.856;151.182;2023-04-03T15:13:04;16.70;99.90
20803;DHT22;10562;-33.856;151.182;2023-04-03T15:15:35;16.70;99.90
20803;DHT22;10562;-33.856;151.182;2023-04-03T15:18:06;16.70;99.90
20803;DHT22;10562;-33.856;151.182;2023-04-03T15:20:37;16.70;99.90
20803;DHT22;10562;-33.856;151.182;2023-04-03T15:23:08;16.70;99.90
20803;DHT22;10562;-33.856;151.182;2023-04-03T15:25:40;16.70;99.90
20803;DHT22;10562;-33.856;151.182;2023-04-03T15:28:18;16.60;99.90
20803;DHT22;10562;-33.856;151.182;2023-04-03T15:30:50;16.60;99.90
20803;DHT22;10562;-33.856;151.182;2023-04-03T15:33:20;16.60;99.90
20803;DHT22;10562;-33.856;151.182;2023-04-03T15:35:51;16.60;99.90